John_paul K — PBHY — position and weather

sailwx.info

Track history (hours):
 
Tides and Currents Weather Stations Pressure Air Temp Water Temp Dewpoint Dewpoint Depression Visibility Wind Speed Wind Dir Waves Ship Positions

John_paul K

Last reported at 2015-Jan-31 16:12 UTC. Time now 2015-Feb-01 07:17 UTC.
Position N 37°14' W 001°03'.

Length 90 m; draft 4.1 m.

Type: Cargo ship. MMSI: 245181000.

Date/timePositionNaut miles runAvg speedWind from/ knotsBaromVisibWave heightAir tempDewpointWater temp
2015-Jan-31 16:12N 37°14' W 001°03'15 8.3
2015-Jan-31 14:23N 37°24' W 000°49'7 7.7
2015-Jan-31 13:32N 37°28' W 000°42'7 7.1
2015-Jan-31 12:33N 37°33' W 000°36'7 6.9
2015-Jan-31 11:33N 37°38' W 000°30'7 7.3
2015-Jan-31 10:33N 37°44' W 000°25'9 8.0
2015-Jan-31 09:27N 37°51' W 000°19'7 8.2
2015-Jan-31 08:33N 37°58' W 000°14'7 7.0
2015-Jan-31 07:33N 38°04' W 000°10'  
2015-Jan-28 02:17N 38°03' W 000°06'6 7.6
2015-Jan-28 01:26N 37°57' W 000°10'7 7.8
2015-Jan-28 00:32N 37°51' W 000°15'9 8.8
2015-Jan-27 23:33N 37°44' W 000°21'9 9.0
2015-Jan-27 22:33N 37°36' W 000°28'9 8.8
2015-Jan-27 21:33N 37°30' W 000°35'9 8.7
2015-Jan-27 20:33N 37°24' W 000°43'9 8.9
2015-Jan-27 19:33N 37°19' W 000°52'10 9.1
2015-Jan-27 18:25N 37°12' W 001°02'218 9.0
2015-Jan-26 18:22N 35°55' W 005°15'3 4.3
2015-Jan-26 17:33N 35°54' W 005°19'0 0.0
2015-Jan-26 16:34N 35°54' W 005°19'0 0.0
2015-Jan-26 15:33N 35°54' W 005°19'3 0.4
2015-Jan-26 07:14N 35°55' W 005°16'6 9.2
2015-Jan-26 06:33N 35°57' W 005°23'202 9.1
2015-Jan-25 08:30N 36°43' W 009°27'10 9.1
2015-Jan-25 07:23N 36°52' W 009°33'8 9.2
2015-Jan-25 06:28N 37°00' W 009°35'9 9.3
2015-Jan-25 05:33N 37°08' W 009°38'9 9.1
2015-Jan-25 04:33N 37°17' W 009°40'10 9.3
2015-Jan-25 03:26N 37°27' W 009°43'9 9.6
2015-Jan-25 02:33N 37°36' W 009°46'10 9.6
2015-Jan-25 01:32N 37°45' W 009°48'11 9.5
2015-Jan-25 00:23N 37°56' W 009°51'8 9.6
2015-Jan-24 23:33N 38°04' W 009°54'19 9.5
2015-Jan-24 21:29N 38°23' W 009°59'13 9.6
2015-Jan-24 20:08N 38°35' W 010°04'6 9.8
2015-Jan-24 19:33N 38°41' W 010°05'  
Track history (hours):
 
Tides and Currents Weather Stations Pressure Air Temp Water Temp Dewpoint Dewpoint Depression Visibility Wind Speed Wind Dir Waves Ship Positions

John_paul K

Last reported at 2015-Jan-31 16:12 UTC. Time now 2015-Feb-01 07:17 UTC.
Position N 37°14' W 001°03'.

Length 90 m; draft 4.1 m.

Type: Cargo ship. MMSI: 245181000.

Date/timePositionNaut miles runAvg speedWind from/ knotsBaromVisibWave heightAir tempDewpointWater temp
2015-Jan-31 16:12N 37°14' W 001°03'15 8.3
2015-Jan-31 14:23N 37°24' W 000°49'7 7.7
2015-Jan-31 13:32N 37°28' W 000°42'7 7.1
2015-Jan-31 12:33N 37°33' W 000°36'7 6.9
2015-Jan-31 11:33N 37°38' W 000°30'7 7.3
2015-Jan-31 10:33N 37°44' W 000°25'9 8.0
2015-Jan-31 09:27N 37°51' W 000°19'7 8.2
2015-Jan-31 08:33N 37°58' W 000°14'7 7.0
2015-Jan-31 07:33N 38°04' W 000°10'  
2015-Jan-28 02:17N 38°03' W 000°06'6 7.6
2015-Jan-28 01:26N 37°57' W 000°10'7 7.8
2015-Jan-28 00:32N 37°51' W 000°15'9 8.8
2015-Jan-27 23:33N 37°44' W 000°21'9 9.0
2015-Jan-27 22:33N 37°36' W 000°28'9 8.8
2015-Jan-27 21:33N 37°30' W 000°35'9 8.7
2015-Jan-27 20:33N 37°24' W 000°43'9 8.9
2015-Jan-27 19:33N 37°19' W 000°52'10 9.1
2015-Jan-27 18:25N 37°12' W 001°02'218 9.0
2015-Jan-26 18:22N 35°55' W 005°15'3 4.3
2015-Jan-26 17:33N 35°54' W 005°19'0 0.0
2015-Jan-26 16:34N 35°54' W 005°19'0 0.0
2015-Jan-26 15:33N 35°54' W 005°19'3 0.4
2015-Jan-26 07:14N 35°55' W 005°16'6 9.2
2015-Jan-26 06:33N 35°57' W 005°23'202 9.1
2015-Jan-25 08:30N 36°43' W 009°27'10 9.1
2015-Jan-25 07:23N 36°52' W 009°33'8 9.2
2015-Jan-25 06:28N 37°00' W 009°35'9 9.3
2015-Jan-25 05:33N 37°08' W 009°38'9 9.1
2015-Jan-25 04:33N 37°17' W 009°40'10 9.3
2015-Jan-25 03:26N 37°27' W 009°43'9 9.6
2015-Jan-25 02:33N 37°36' W 009°46'10 9.6
2015-Jan-25 01:32N 37°45' W 009°48'11 9.5
2015-Jan-25 00:23N 37°56' W 009°51'8 9.6
2015-Jan-24 23:33N 38°04' W 009°54'19 9.5
2015-Jan-24 21:29N 38°23' W 009°59'13 9.6
2015-Jan-24 20:08N 38°35' W 010°04'6 9.8
2015-Jan-24 19:33N 38°41' W 010°05'  

Dump ship's entire track history